Airport View

Enter AWOS ICAO identifier for current METAR.

ex. KFNL

KAUN 190635Z AUTO 10006KT 10SM CLR 17/11 A3007 RMK A01

19 Apr 2019 06:49

Frequency: 119.375

Phone: 530-888-8934

Other Area AWOS: KLHM - KGOO - KBAB - KPVF

TAF KBAB 190300Z 1903/2009 VRB06KT 9999 SKC QNH2994INS TX27/1922Z TN08/1912Z